sensor_id;sensor_type;location;lat;lon;timestamp;pressure;altitude;pressure_sealevel;temperature;humidity
48630;BME280;34426;52.180;4.462;2023-02-17T00:00:15;101968.44;;;9.13;92.27
48630;BME280;34426;52.180;4.462;2023-02-17T00:02:43;101971.00;;;9.14;92.35
48630;BME280;34426;52.180;4.462;2023-02-17T00:05:12;101971.47;;;9.11;92.04
48630;BME280;34426;52.180;4.462;2023-02-17T00:07:40;101977.03;;;9.11;92.42
48630;BME280;34426;52.180;4.462;2023-02-17T00:10:08;101972.53;;;9.10;92.82
48630;BME280;34426;52.180;4.462;2023-02-17T00:12:36;101971.94;;;9.08;92.72
48630;BME280;34426;52.180;4.462;2023-02-17T00:15:04;101988.91;;;9.07;93.12
48630;BME280;34426;52.180;4.462;2023-02-17T00:17:31;101982.03;;;9.09;92.75
48630;BME280;34426;52.180;4.462;2023-02-17T00:19:59;101986.13;;;9.07;93.01
48630;BME280;34426;52.180;4.462;2023-02-17T00:22:28;101986.59;;;9.04;92.69
48630;BME280;34426;52.180;4.462;2023-02-17T00:24:56;101978.00;;;9.05;92.69
48630;BME280;34426;52.180;4.462;2023-02-17T00:27:23;101979.69;;;9.06;92.53
48630;BME280;34426;52.180;4.462;2023-02-17T00:29:51;101969.00;;;9.03;93.23
48630;BME280;34426;52.180;4.462;2023-02-17T00:32:19;101972.88;;;9.02;93.16
48630;BME280;34426;52.180;4.462;2023-02-17T00:34:46;101967.75;;;8.99;93.46
48630;BME280;34426;52.180;4.462;2023-02-17T00:37:13;101955.50;;;9.00;92.92
48630;BME280;34426;52.180;4.462;2023-02-17T00:39:43;101955.72;;;8.98;92.13
48630;BME280;34426;52.180;4.462;2023-02-17T00:42:10;101967.13;;;8.97;93.29
48630;BME280;34426;52.180;4.462;2023-02-17T00:44:38;101962.00;;;8.94;92.45
48630;BME280;34426;52.180;4.462;2023-02-17T00:47:05;101977.03;;;8.93;92.72
48630;BME280;34426;52.180;4.462;2023-02-17T00:49:32;101953.41;;;8.95;92.66
48630;BME280;34426;52.180;4.462;2023-02-17T00:52:00;101948.66;;;8.96;93.45
48630;BME280;34426;52.180;4.462;2023-02-17T00:54:28;101959.75;;;9.03;92.57
48630;BME280;34426;52.180;4.462;2023-02-17T00:56:57;101962.31;;;9.04;92.15
48630;BME280;34426;52.180;4.462;2023-02-17T00:59:24;101964.66;;;9.07;92.41
48630;BME280;34426;52.180;4.462;2023-02-17T01:01:52;101951.31;;;9.09;92.78
48630;BME280;34426;52.180;4.462;2023-02-17T01:04:19;101963.34;;;9.10;93.17
48630;BME280;34426;52.180;4.462;2023-02-17T01:06:47;101976.44;;;9.09;92.47
48630;BME280;34426;52.180;4.462;2023-02-17T01:09:14;101968.94;;;9.10;92.27
48630;BME280;34426;52.180;4.462;2023-02-17T01:11:42;101962.50;;;9.09;92.61
48630;BME280;34426;52.180;4.462;2023-02-17T01:14:13;101957.84;;;9.03;92.80
48630;BME280;34426;52.180;4.462;2023-02-17T01:16:42;101948.38;;;9.04;92.40
48630;BME280;34426;52.180;4.462;2023-02-17T01:19:14;101938.53;;;9.02;92.25
48630;BME280;34426;52.180;4.462;2023-02-17T01:21:41;101946.34;;;8.93;91.78
48630;BME280;34426;52.180;4.462;2023-02-17T01:24:10;101935.63;;;8.90;92.06
48630;BME280;34426;52.180;4.462;2023-02-17T01:26:38;101956.25;;;8.89;92.63
48630;BME280;34426;52.180;4.462;2023-02-17T01:29:08;101940.81;;;8.86;91.87
48630;BME280;34426;52.180;4.462;2023-02-17T01:31:39;101934.38;;;8.86;91.74
48630;BME280;34426;52.180;4.462;2023-02-17T01:34:06;101946.00;;;8.83;91.85
48630;BME280;34426;52.180;4.462;2023-02-17T01:36:34;101933.13;;;8.82;92.16
48630;BME280;34426;52.180;4.462;2023-02-17T01:39:01;101937.00;;;8.81;91.65
48630;BME280;34426;52.180;4.462;2023-02-17T01:41:28;101934.22;;;8.81;92.70
48630;BME280;34426;52.180;4.462;2023-02-17T01:44:07;101934.84;;;8.83;92.13
48630;BME280;34426;52.180;4.462;2023-02-17T01:46:38;101925.41;;;8.84;91.46
48630;BME280;34426;52.180;4.462;2023-02-17T01:49:21;101927.09;;;8.85;92.07
48630;BME280;34426;52.180;4.462;2023-02-17T01:51:55;101924.94;;;8.87;91.61
48630;BME280;34426;52.180;4.462;2023-02-17T01:54:27;101929.44;;;8.88;91.03
48630;BME280;34426;52.180;4.462;2023-02-17T01:56:57;101915.47;;;8.88;91.35
48630;BME280;34426;52.180;4.462;2023-02-17T01:59:26;101908.19;;;8.87;90.97
48630;BME280;34426;52.180;4.462;2023-02-17T02:01:59;101911.84;;;8.87;91.08
48630;BME280;34426;52.180;4.462;2023-02-17T02:04:27;101908.19;;;8.87;91.30
48630;BME280;34426;52.180;4.462;2023-02-17T02:06:56;101921.06;;;8.88;90.87
48630;BME280;34426;52.180;4.462;2023-02-17T02:09:29;101918.91;;;8.90;90.98
48630;BME280;34426;52.180;4.462;2023-02-17T02:11:57;101912.00;;;8.92;91.05
48630;BME280;34426;52.180;4.462;2023-02-17T02:14:26;101908.53;;;8.97;90.41
48630;BME280;34426;52.180;4.462;2023-02-17T02:17:03;101891.31;;;9.00;90.57
48630;BME280;34426;52.180;4.462;2023-02-17T02:20:02;101893.88;;;9.02;89.81
48630;BME280;34426;52.180;4.462;2023-02-17T02:23:06;101894.25;;;9.05;90.35
48630;BME280;34426;52.180;4.462;2023-02-17T02:28:49;101892.72;;;9.09;89.89
48630;BME280;34426;52.180;4.462;2023-02-17T02:31:28;101897.19;;;9.10;89.67
48630;BME280;34426;52.180;4.462;2023-02-17T02:34:08;101889.53;;;9.06;89.79
48630;BME280;34426;52.180;4.462;2023-02-17T02:36:41;101889.78;;;9.04;90.02
48630;BME280;34426;52.180;4.462;2023-02-17T02:39:11;101885.28;;;9.03;90.10
48630;BME280;34426;52.180;4.462;2023-02-17T02:41:41;101897.75;;;9.00;91.04
48630;BME280;34426;52.180;4.462;2023-02-17T02:44:11;101885.19;;;8.91;91.34
48630;BME280;34426;52.180;4.462;2023-02-17T02:46:39;101877.28;;;8.88;90.79
48630;BME280;34426;52.180;4.462;2023-02-17T02:49:09;101860.16;;;8.85;91.81
48630;BME280;34426;52.180;4.462;2023-02-17T02:51:44;101861.47;;;8.82;91.75
48630;BME280;34426;52.180;4.462;2023-02-17T02:54:21;101859.91;;;8.86;91.47
48630;BME280;34426;52.180;4.462;2023-02-17T02:57:12;101850.31;;;8.82;92.90
48630;BME280;34426;52.180;4.462;2023-02-17T02:59:50;101862.31;;;8.83;92.67
48630;BME280;34426;52.180;4.462;2023-02-17T03:02:27;101836.59;;;8.81;92.92
48630;BME280;34426;52.180;4.462;2023-02-17T03:05:06;101823.97;;;8.78;93.13
48630;BME280;34426;52.180;4.462;2023-02-17T03:07:39;101824.81;;;8.79;93.62
48630;BME280;34426;52.180;4.462;2023-02-17T03:10:09;101832.72;;;8.82;93.57
48630;BME280;34426;52.180;4.462;2023-02-17T03:12:37;101837.38;;;8.88;93.35
48630;BME280;34426;52.180;4.462;2023-02-17T03:15:08;101844.66;;;8.89;93.22
48630;BME280;34426;52.180;4.462;2023-02-17T03:17:37;101840.78;;;8.90;93.08
48630;BME280;34426;52.180;4.462;2023-02-17T03:20:08;101842.72;;;8.89;93.52
48630;BME280;34426;52.180;4.462;2023-02-17T03:22:36;101835.19;;;8.90;93.40
48630;BME280;34426;52.180;4.462;2023-02-17T03:25:05;101828.75;;;8.89;93.27
48630;BME280;34426;52.180;4.462;2023-02-17T03:27:33;101833.50;;;8.89;93.31
48630;BME280;34426;52.180;4.462;2023-02-17T03:30:00;101833.50;;;8.89;93.65
48630;BME280;34426;52.180;4.462;2023-02-17T03:32:28;101831.56;;;8.89;92.93
48630;BME280;34426;52.180;4.462;2023-02-17T03:34:55;101852.78;;;8.90;93.36
48630;BME280;34426;52.180;4.462;2023-02-17T03:37:27;101834.97;;;8.91;92.87
48630;BME280;34426;52.180;4.462;2023-02-17T03:39:54;101855.13;;;8.93;93.44
48630;BME280;34426;52.180;4.462;2023-02-17T03:42:21;101851.47;;;8.93;93.54
48630;BME280;34426;52.180;4.462;2023-02-17T03:44:49;101852.72;;;8.97;92.95
48630;BME280;34426;52.180;4.462;2023-02-17T03:47:17;101845.59;;;9.01;92.85
48630;BME280;34426;52.180;4.462;2023-02-17T03:49:44;101849.63;;;9.05;92.87
48630;BME280;34426;52.180;4.462;2023-02-17T03:52:11;101832.63;;;9.07;93.11
48630;BME280;34426;52.180;4.462;2023-02-17T03:54:40;101831.31;;;9.09;93.29
48630;BME280;34426;52.180;4.462;2023-02-17T03:57:08;101834.97;;;9.10;92.54
48630;BME280;34426;52.180;4.462;2023-02-17T03:59:36;101844.78;;;9.12;91.89
48630;BME280;34426;52.180;4.462;2023-02-17T04:02:04;101836.16;;;9.14;92.65
48630;BME280;34426;52.180;4.462;2023-02-17T04:04:31;101836.16;;;9.14;92.37
48630;BME280;34426;52.180;4.462;2023-02-17T04:06:59;101837.88;;;9.15;92.60
48630;BME280;34426;52.180;4.462;2023-02-17T04:09:27;101844.94;;;9.17;92.24
48630;BME280;34426;52.180;4.462;2023-02-17T04:11:56;101852.84;;;9.20;92.68
48630;BME280;34426;52.180;4.462;2023-02-17T04:14:23;101832.22;;;9.21;92.42
48630;BME280;34426;52.180;4.462;2023-02-17T04:16:50;101838.03;;;9.20;92.19
48630;BME280;34426;52.180;4.462;2023-02-17T04:19:18;101826.63;;;9.21;93.02
48630;BME280;34426;52.180;4.462;2023-02-17T04:21:46;101829.19;;;9.23;92.67
48630;BME280;34426;52.180;4.462;2023-02-17T04:24:13;101821.03;;;9.21;92.28
48630;BME280;34426;52.180;4.462;2023-02-17T04:26:40;101827.25;;;9.23;93.16
48630;BME280;34426;52.180;4.462;2023-02-17T04:29:10;101828.94;;;9.24;92.61
48630;BME280;34426;52.180;4.462;2023-02-17T04:31:37;101823.59;;;9.23;92.71
48630;BME280;34426;52.180;4.462;2023-02-17T04:34:05;101815.47;;;9.21;93.36
48630;BME280;34426;52.180;4.462;2023-02-17T04:36:32;101798.72;;;9.21;92.83
48630;BME280;34426;52.180;4.462;2023-02-17T04:38:59;101813.75;;;9.20;93.16
48630;BME280;34426;52.180;4.462;2023-02-17T04:41:27;101803.44;;;9.21;92.89
48630;BME280;34426;52.180;4.462;2023-02-17T04:43:54;101819.81;;;9.17;92.62
48630;BME280;34426;52.180;4.462;2023-02-17T04:46:24;101817.63;;;9.19;93.43
48630;BME280;34426;52.180;4.462;2023-02-17T04:48:51;101839.97;;;9.19;93.26
48630;BME280;34426;52.180;4.462;2023-02-17T04:51:19;101830.34;;;9.15;93.63
48630;BME280;34426;52.180;4.462;2023-02-17T04:53:46;101828.66;;;9.14;94.28
48630;BME280;34426;52.180;4.462;2023-02-17T04:56:14;101844.31;;;9.15;93.27
48630;BME280;34426;52.180;4.462;2023-02-17T04:58:42;101831.44;;;9.14;94.01
48630;BME280;34426;52.180;4.462;2023-02-17T05:01:09;101836.56;;;9.17;93.94
48630;BME280;34426;52.180;4.462;2023-02-17T05:03:39;101817.63;;;9.19;94.09
48630;BME280;34426;52.180;4.462;2023-02-17T05:06:06;101830.50;;;9.20;94.48
48630;BME280;34426;52.180;4.462;2023-02-17T05:08:34;101816.31;;;9.22;94.11
48630;BME280;34426;52.180;4.462;2023-02-17T05:11:02;101818.63;;;9.25;93.86
48630;BME280;34426;52.180;4.462;2023-02-17T05:13:29;101816.22;;;9.28;94.38
48630;BME280;34426;52.180;4.462;2023-02-17T05:15:57;101798.16;;;9.31;94.45
48630;BME280;34426;52.180;4.462;2023-02-17T05:18:24;101795.97;;;9.33;94.59
48630;BME280;34426;52.180;4.462;2023-02-17T05:20:54;101800.72;;;9.32;94.43
48630;BME280;34426;52.180;4.462;2023-02-17T05:23:23;101791.88;;;9.36;94.95
48630;BME280;34426;52.180;4.462;2023-02-17T05:25:51;101783.00;;;9.39;94.65
48630;BME280;34426;52.180;4.462;2023-02-17T05:28:18;101779.75;;;9.42;94.19
48630;BME280;34426;52.180;4.462;2023-02-17T05:30:47;101780.34;;;9.44;94.33
48630;BME280;34426;52.180;4.462;2023-02-17T05:33:15;101766.16;;;9.45;94.11
48630;BME280;34426;52.180;4.462;2023-02-17T05:35:43;101780.75;;;9.47;94.45
48630;BME280;34426;52.180;4.462;2023-02-17T05:38:13;101791.06;;;9.47;94.52
48630;BME280;34426;52.180;4.462;2023-02-17T05:40:41;101796.66;;;9.47;94.56
48630;BME280;34426;52.180;4.462;2023-02-17T05:43:08;101778.19;;;9.46;94.39
48630;BME280;34426;52.180;4.462;2023-02-17T05:45:35;101787.41;;;9.46;94.04
48630;BME280;34426;52.180;4.462;2023-02-17T05:48:03;101787.19;;;9.48;94.09
48630;BME280;34426;52.180;4.462;2023-02-17T05:50:30;101764.34;;;9.51;94.02
48630;BME280;34426;52.180;4.462;2023-02-17T05:52:58;101767.50;;;9.54;94.58
48630;BME280;34426;52.180;4.462;2023-02-17T05:55:27;101752.22;;;9.57;93.81
48630;BME280;34426;52.180;4.462;2023-02-17T05:57:55;101762.28;;;9.58;93.89
48630;BME280;34426;52.180;4.462;2023-02-17T06:00:22;101768.47;;;9.60;94.45
48630;BME280;34426;52.180;4.462;2023-02-17T06:02:50;101765.44;;;9.61;94.27
48630;BME280;34426;52.180;4.462;2023-02-17T06:05:17;101761.09;;;9.65;94.05
48630;BME280;34426;52.180;4.462;2023-02-17T06:07:45;101751.63;;;9.66;94.02
48630;BME280;34426;52.180;4.462;2023-02-17T06:10:12;101768.16;;;9.68;93.79
48630;BME280;34426;52.180;4.462;2023-02-17T06:12:42;101760.84;;;9.67;93.72
48630;BME280;34426;52.180;4.462;2023-02-17T06:15:10;101761.47;;;9.69;93.64
48630;BME280;34426;52.180;4.462;2023-02-17T06:17:38;101760.38;;;9.70;93.72
48630;BME280;34426;52.180;4.462;2023-02-17T06:20:08;101752.59;;;9.72;93.03
48630;BME280;34426;52.180;4.462;2023-02-17T06:22:35;101749.81;;;9.72;93.25
48630;BME280;34426;52.180;4.462;2023-02-17T06:25:04;101732.44;;;9.70;92.97
48630;BME280;34426;52.180;4.462;2023-02-17T06:27:33;101761.47;;;9.69;93.29
48630;BME280;34426;52.180;4.462;2023-02-17T06:30:04;101749.06;;;9.65;92.92
48630;BME280;34426;52.180;4.462;2023-02-17T06:32:31;101738.75;;;9.65;92.92
48630;BME280;34426;52.180;4.462;2023-02-17T06:34:58;101735.09;;;9.65;93.25
48630;BME280;34426;52.180;4.462;2023-02-17T06:37:26;101757.06;;;9.61;92.89
48630;BME280;34426;52.180;4.462;2023-02-17T06:39:53;101736.66;;;9.61;93.61
48630;BME280;34426;52.180;4.462;2023-02-17T06:42:21;101748.09;;;9.59;92.95
48630;BME280;34426;52.180;4.462;2023-02-17T06:44:48;101738.63;;;9.60;92.80
48630;BME280;34426;52.180;4.462;2023-02-17T06:47:18;101746.13;;;9.60;93.05
48630;BME280;34426;52.180;4.462;2023-02-17T06:49:45;101738.47;;;9.55;93.12
48630;BME280;34426;52.180;4.462;2023-02-17T06:52:12;101740.66;;;9.53;92.83
48630;BME280;34426;52.180;4.462;2023-02-17T06:54:41;101739.84;;;9.53;93.71
48630;BME280;34426;52.180;4.462;2023-02-17T06:57:08;101755.47;;;9.54;93.71
48630;BME280;34426;52.180;4.462;2023-02-17T06:59:36;101778.66;;;9.54;93.41
48630;BME280;34426;52.180;4.462;2023-02-17T07:02:03;101742.13;;;9.56;93.39
48630;BME280;34426;52.180;4.462;2023-02-17T07:04:33;101774.53;;;9.57;92.82
48630;BME280;34426;52.180;4.462;2023-02-17T07:07:00;101787.91;;;9.55;93.41
48630;BME280;34426;52.180;4.462;2023-02-17T07:09:28;101766.06;;;9.52;92.48
48630;BME280;34426;52.180;4.462;2023-02-17T07:11:55;101758.88;;;9.44;92.79
48630;BME280;34426;52.180;4.462;2023-02-17T07:14:23;101766.88;;;9.41;93.02
48630;BME280;34426;52.180;4.462;2023-02-17T07:16:52;101752.06;;;9.40;93.55
48630;BME280;34426;52.180;4.462;2023-02-17T07:19:20;101751.22;;;9.40;93.40
48630;BME280;34426;52.180;4.462;2023-02-17T07:21:50;101761.06;;;9.42;93.18
48630;BME280;34426;52.180;4.462;2023-02-17T07:24:17;101744.53;;;9.41;92.75
48630;BME280;34426;52.180;4.462;2023-02-17T07:26:45;101754.25;;;9.38;93.85
48630;BME280;34426;52.180;4.462;2023-02-17T07:29:12;101755.94;;;9.39;93.16
48630;BME280;34426;52.180;4.462;2023-02-17T07:31:39;101750.34;;;9.39;93.54
48630;BME280;34426;52.180;4.462;2023-02-17T07:34:07;101757.41;;;9.42;93.49
48630;BME280;34426;52.180;4.462;2023-02-17T07:36:34;101768.56;;;9.42;93.91
48630;BME280;34426;52.180;4.462;2023-02-17T07:39:05;101741.38;;;9.37;93.35
48630;BME280;34426;52.180;4.462;2023-02-17T07:41:33;101774.25;;;9.35;93.20
48630;BME280;34426;52.180;4.462;2023-02-17T07:44:00;101789.53;;;9.32;94.06
48630;BME280;34426;52.180;4.462;2023-02-17T07:46:27;101797.91;;;9.32;93.69
48630;BME280;34426;52.180;4.462;2023-02-17T07:48:56;101797.44;;;9.36;93.61
48630;BME280;34426;52.180;4.462;2023-02-17T07:51:24;101798.06;;;9.38;93.37
48630;BME280;34426;52.180;4.462;2023-02-17T07:53:51;101798.06;;;9.38;93.08
48630;BME280;34426;52.180;4.462;2023-02-17T07:56:21;101790.91;;;9.42;93.48
48630;BME280;34426;52.180;4.462;2023-02-17T07:58:48;101855.13;;;9.42;94.09
48630;BME280;34426;52.180;4.462;2023-02-17T08:01:17;101800.53;;;9.46;93.45
48630;BME280;34426;52.180;4.462;2023-02-17T08:03:46;101797.13;;;9.44;93.39
48630;BME280;34426;52.180;4.462;2023-02-17T08:06:16;101793.00;;;9.46;93.19
48630;BME280;34426;52.180;4.462;2023-02-17T08:08:44;101786.81;;;9.44;93.30
48630;BME280;34426;52.180;4.462;2023-02-17T08:11:12;101783.78;;;9.46;93.06
48630;BME280;34426;52.180;4.462;2023-02-17T08:13:42;101810.84;;;9.45;93.12
48630;BME280;34426;52.180;4.462;2023-02-17T08:16:10;101800.06;;;9.49;93.96
48630;BME280;34426;52.180;4.462;2023-02-17T08:18:39;101804.91;;;9.53;93.12
48630;BME280;34426;52.180;4.462;2023-02-17T08:21:07;101794.56;;;9.54;92.56
48630;BME280;34426;52.180;4.462;2023-02-17T08:23:35;101784.53;;;9.53;92.82
48630;BME280;34426;52.180;4.462;2023-02-17T08:26:02;101821.66;;;9.53;93.05
48630;BME280;34426;52.180;4.462;2023-02-17T08:28:30;101801.28;;;9.53;92.54
48630;BME280;34426;52.180;4.462;2023-02-17T08:30:59;101813.66;;;9.57;92.96
48630;BME280;34426;52.180;4.462;2023-02-17T08:33:27;101818.03;;;9.53;92.92
48630;BME280;34426;52.180;4.462;2023-02-17T08:35:54;101835.88;;;9.52;92.56
48630;BME280;34426;52.180;4.462;2023-02-17T08:38:24;101840.97;;;9.55;92.12
48630;BME280;34426;52.180;4.462;2023-02-17T08:40:53;101813.88;;;9.55;92.66
48630;BME280;34426;52.180;4.462;2023-02-17T08:43:20;101813.53;;;9.52;92.11
48630;BME280;34426;52.180;4.462;2023-02-17T08:45:47;101815.34;;;9.58;92.61
48630;BME280;34426;52.180;4.462;2023-02-17T08:48:17;101797.50;;;9.59;92.48
48630;BME280;34426;52.180;4.462;2023-02-17T08:50:47;101828.47;;;9.57;92.15
48630;BME280;34426;52.180;4.462;2023-02-17T08:53:14;101799.81;;;9.62;92.36
48630;BME280;34426;52.180;4.462;2023-02-17T08:55:41;101809.75;;;9.58;91.54
48630;BME280;34426;52.180;4.462;2023-02-17T08:58:09;101789.13;;;9.59;91.99
48630;BME280;34426;52.180;4.462;2023-02-17T09:00:36;101810.16;;;9.61;91.68
48630;BME280;34426;52.180;4.462;2023-02-17T09:03:04;101820.38;;;9.67;91.28
48630;BME280;34426;52.180;4.462;2023-02-17T09:05:34;101831.31;;;9.69;91.36
48630;BME280;34426;52.180;4.462;2023-02-17T09:08:03;101838.44;;;9.65;91.35
48630;BME280;34426;52.180;4.462;2023-02-17T09:10:32;101810.53;;;9.65;91.42
48630;BME280;34426;52.180;4.462;2023-02-17T09:12:59;101807.88;;;9.70;91.35
48630;BME280;34426;52.180;4.462;2023-02-17T09:15:27;101817.72;;;9.73;91.34
48630;BME280;34426;52.180;4.462;2023-02-17T09:17:54;101789.91;;;9.78;91.03
48630;BME280;34426;52.180;4.462;2023-02-17T09:20:22;101790.91;;;9.83;90.91
48630;BME280;34426;52.180;4.462;2023-02-17T09:22:52;101806.22;;;9.92;90.65
48630;BME280;34426;52.180;4.462;2023-02-17T09:25:20;101830.16;;;10.00;90.81
48630;BME280;34426;52.180;4.462;2023-02-17T09:27:47;101818.88;;;10.07;90.37
48630;BME280;34426;52.180;4.462;2023-02-17T09:30:15;101828.34;;;10.06;89.49
48630;BME280;34426;52.180;4.462;2023-02-17T09:32:43;101834.19;;;10.16;89.96
48630;BME280;34426;52.180;4.462;2023-02-17T09:35:14;101854.84;;;10.15;89.79
48630;BME280;34426;52.180;4.462;2023-02-17T09:37:43;101808.44;;;10.14;89.68
48630;BME280;34426;52.180;4.462;2023-02-17T09:40:19;101821.41;;;10.08;89.88
48630;BME280;34426;52.180;4.462;2023-02-17T09:42:47;101813.53;;;10.17;89.81
48630;BME280;34426;52.180;4.462;2023-02-17T09:45:18;101824.03;;;10.21;89.27
48630;BME280;34426;52.180;4.462;2023-02-17T09:47:49;101832.88;;;10.18;89.70
48630;BME280;34426;52.180;4.462;2023-02-17T09:50:22;101834.69;;;10.13;89.88
48630;BME280;34426;52.180;4.462;2023-02-17T09:52:53;101832.00;;;10.18;89.61
48630;BME280;34426;52.180;4.462;2023-02-17T09:55:29;101852.69;;;10.17;89.09
48630;BME280;34426;52.180;4.462;2023-02-17T09:58:00;101838.44;;;10.18;89.39
48630;BME280;34426;52.180;4.462;2023-02-17T10:00:32;101857.53;;;10.10;89.25
48630;BME280;34426;52.180;4.462;2023-02-17T10:03:05;101835.91;;;10.17;89.19
48630;BME280;34426;52.180;4.462;2023-02-17T10:05:39;101860.22;;;10.16;89.08
48630;BME280;34426;52.180;4.462;2023-02-17T10:08:13;101841.13;;;10.13;89.27
48630;BME280;34426;52.180;4.462;2023-02-17T10:10:49;101850.72;;;10.17;88.55
48630;BME280;34426;52.180;4.462;2023-02-17T10:13:23;101861.06;;;10.17;89.13
48630;BME280;34426;52.180;4.462;2023-02-17T10:15:52;101855.03;;;10.20;88.66
48630;BME280;34426;52.180;4.462;2023-02-17T10:18:23;101879.72;;;10.23;88.86
48630;BME280;34426;52.180;4.462;2023-02-17T10:20:55;101884.94;;;10.31;88.55
48630;BME280;34426;52.180;4.462;2023-02-17T10:23:27;101898.19;;;10.24;88.36
48630;BME280;34426;52.180;4.462;2023-02-17T10:26:09;101886.53;;;10.27;88.70
48630;BME280;34426;52.180;4.462;2023-02-17T10:28:50;101915.19;;;10.22;88.45
48630;BME280;34426;52.180;4.462;2023-02-17T10:31:27;101868.69;;;10.10;89.19
48630;BME280;34426;52.180;4.462;2023-02-17T10:34:02;101867.72;;;10.04;89.45
48630;BME280;34426;52.180;4.462;2023-02-17T10:36:37;101891.06;;;10.10;89.08
48630;BME280;34426;52.180;4.462;2023-02-17T10:39:13;101888.88;;;10.12;88.88
48630;BME280;34426;52.180;4.462;2023-02-17T10:41:41;101908.44;;;10.12;89.03
48630;BME280;34426;52.180;4.462;2023-02-17T10:44:17;101900.06;;;10.12;89.05
48630;BME280;34426;52.180;4.462;2023-02-17T10:46:47;101906.28;;;10.14;88.93
48630;BME280;34426;52.180;4.462;2023-02-17T10:49:20;101915.88;;;10.18;88.59
48630;BME280;34426;52.180;4.462;2023-02-17T10:51:50;101915.97;;;10.11;88.62
48630;BME280;34426;52.180;4.462;2023-02-17T10:54:25;101892.75;;;10.11;88.54
48630;BME280;34426;52.180;4.462;2023-02-17T10:56:59;101878.66;;;10.06;88.88
48630;BME280;34426;52.180;4.462;2023-02-17T10:59:29;101863.59;;;10.07;88.84
48630;BME280;34426;52.180;4.462;2023-02-17T11:02:04;101867.09;;;10.02;88.76
48630;BME280;34426;52.180;4.462;2023-02-17T11:04:41;101888.75;;;10.07;88.48
48630;BME280;34426;52.180;4.462;2023-02-17T11:07:13;101884.25;;;10.06;88.36
48630;BME280;34426;52.180;4.462;2023-02-17T11:09:46;101888.97;;;10.05;88.94
48630;BME280;34426;52.180;4.462;2023-02-17T11:12:19;101936.88;;;10.09;88.71
48630;BME280;34426;52.180;4.462;2023-02-17T11:14:49;101946.50;;;10.13;88.06
48630;BME280;34426;52.180;4.462;2023-02-17T11:17:23;101944.41;;;10.08;88.24
48630;BME280;34426;52.180;4.462;2023-02-17T11:19:58;101935.78;;;10.10;88.54
48630;BME280;34426;52.180;4.462;2023-02-17T11:22:34;101954.13;;;10.06;88.47
48630;BME280;34426;52.180;4.462;2023-02-17T11:25:04;101931.75;;;10.06;88.92
48630;BME280;34426;52.180;4.462;2023-02-17T11:27:34;101965.31;;;10.06;88.25
48630;BME280;34426;52.180;4.462;2023-02-17T11:30:12;101957.69;;;10.13;88.26
48630;BME280;34426;52.180;4.462;2023-02-17T11:32:40;101952.41;;;10.23;87.70
48630;BME280;34426;52.180;4.462;2023-02-17T11:35:21;101948.75;;;10.22;87.79
48630;BME280;34426;52.180;4.462;2023-02-17T11:37:50;101947.69;;;10.35;87.38
48630;BME280;34426;52.180;4.462;2023-02-17T11:40:24;101946.75;;;10.53;86.53
48630;BME280;34426;52.180;4.462;2023-02-17T11:43:03;101938.97;;;10.55;86.41
48630;BME280;34426;52.180;4.462;2023-02-17T11:45:37;101943.97;;;10.64;86.32
48630;BME280;34426;52.180;4.462;2023-02-17T11:48:30;101943.38;;;10.74;85.43
48630;BME280;34426;52.180;4.462;2023-02-17T11:51:07;101966.22;;;10.59;85.61
48630;BME280;34426;52.180;4.462;2023-02-17T11:53:48;101969.50;;;10.56;86.17
48630;BME280;34426;52.180;4.462;2023-02-17T11:56:18;101951.47;;;10.52;86.35
48630;BME280;34426;52.180;4.462;2023-02-17T11:59:09;101971.16;;;10.46;86.03
48630;BME280;34426;52.180;4.462;2023-02-17T12:02:01;101978.22;;;10.48;86.45
48630;BME280;34426;52.180;4.462;2023-02-17T12:04:37;101982.81;;;10.31;86.42
48630;BME280;34426;52.180;4.462;2023-02-17T12:07:20;101989.13;;;10.26;87.01
48630;BME280;34426;52.180;4.462;2023-02-17T12:09:56;101984.69;;;10.19;86.87
48630;BME280;34426;52.180;4.462;2023-02-17T12:12:32;101991.84;;;10.15;87.20
48630;BME280;34426;52.180;4.462;2023-02-17T12:15:14;101998.38;;;10.09;87.91
48630;BME280;34426;52.180;4.462;2023-02-17T12:17:57;101998.69;;;10.00;87.98
48630;BME280;34426;52.180;4.462;2023-02-17T12:20:43;101979.75;;;10.02;87.56
48630;BME280;34426;52.180;4.462;2023-02-17T12:23:30;101994.34;;;10.05;88.00
48630;BME280;34426;52.180;4.462;2023-02-17T12:26:08;102011.34;;;10.03;87.81
48630;BME280;34426;52.180;4.462;2023-02-17T12:28:47;102009.56;;;10.09;87.64
48630;BME280;34426;52.180;4.462;2023-02-17T12:31:41;101976.72;;;10.22;87.20
48630;BME280;34426;52.180;4.462;2023-02-17T12:34:20;101977.22;;;10.31;86.44
48630;BME280;34426;52.180;4.462;2023-02-17T12:36:51;101987.94;;;10.34;86.46
48630;BME280;34426;52.180;4.462;2023-02-17T12:39:23;102015.91;;;10.34;86.45
48630;BME280;34426;52.180;4.462;2023-02-17T12:41:55;102016.38;;;10.31;86.05
48630;BME280;34426;52.180;4.462;2023-02-17T12:44:27;102017.63;;;10.17;87.24
48630;BME280;34426;52.180;4.462;2023-02-17T12:47:01;102001.78;;;10.11;87.14
48630;BME280;34426;52.180;4.462;2023-02-17T12:49:35;102013.13;;;10.16;86.68
48630;BME280;34426;52.180;4.462;2023-02-17T12:52:07;102007.69;;;10.21;86.63
48630;BME280;34426;52.180;4.462;2023-02-17T12:54:38;102009.47;;;10.15;86.71
48630;BME280;34426;52.180;4.462;2023-02-17T12:57:16;102021.28;;;10.17;86.67
48630;BME280;34426;52.180;4.462;2023-02-17T12:59:46;101994.38;;;10.35;86.50
48630;BME280;34426;52.180;4.462;2023-02-17T13:02:17;102006.66;;;10.45;85.67
48630;BME280;34426;52.180;4.462;2023-02-17T13:04:48;101996.00;;;10.54;85.71
48630;BME280;34426;52.180;4.462;2023-02-17T13:10:02;101995.41;;;10.63;84.83
48630;BME280;34426;52.180;4.462;2023-02-17T13:12:37;102013.41;;;10.56;85.03
48630;BME280;34426;52.180;4.462;2023-02-17T13:15:24;102022.03;;;10.54;85.34
48630;BME280;34426;52.180;4.462;2023-02-17T13:17:58;102048.81;;;10.62;85.37
48630;BME280;34426;52.180;4.462;2023-02-17T13:20:40;102035.69;;;10.62;84.71